Accueil
METAR-TAF:

METAR-TAF

Aéroports :

Le Luc, France

latitude: 43-23N, longitude: 006-23E, altitude: 80 m

Observation

Le bulletin a été fait il y a 32 minutes, à 03:30 UTC
Vent 3 kt de sud/sud-est
Température 5°C
Humidité 93%
Pression 1007 hPa
Visibilité: 8000 m
Nuages fragmentés à une hauteur de 2500 ft
Nuages fragmentés à une hauteur de 3100 ft
Ciel couvert à une hauteur de 4100 ft
pluie faible

METAR: LFMC 250330Z AUTO 16003KT 8000 -RA BKN025 BKN031 OVC041 05/04 Q1007

Heure: 05:02 (04:02 UTC)


TAF: absent

Observations et prévisions météorologiques de plus de 4000 aéroports (messages METAR et TAF).

Les stations disponibles sont représentées par des disques jaunes et rouges sur la carte.

Passer la souris dessus pour voir le nom de la station.

Cliquer dessus pour voir les observations et prévisions météorologiques.

Pour changer de carte: cliquez sur les boutons verts avec une croix noire pour zoomer, sur le bouton vert avec un tiret pour effectuer un zoom arrière, ou sur les flèches vertes pour les cartes adjacentes.


METAR-TAF: